sensor_id;sensor_type;location;lat;lon;timestamp;temperature;humidity
35305;DHT22;26433;48.034;-1.764;2022-10-15T05:03:18;17.80;99.90
35305;DHT22;26433;48.034;-1.764;2022-10-15T05:08:22;17.80;99.90
35305;DHT22;26433;48.034;-1.764;2022-10-15T05:13:28;17.70;99.90
35305;DHT22;26433;48.034;-1.764;2022-10-15T05:18:34;17.60;99.90
35305;DHT22;26433;48.034;-1.764;2022-10-15T05:23:38;17.60;99.90
35305;DHT22;26433;48.034;-1.764;2022-10-15T05:28:43;17.60;99.90
35305;DHT22;26433;48.034;-1.764;2022-10-15T05:33:56;17.60;99.90
35305;DHT22;26433;48.034;-1.764;2022-10-15T05:39:04;17.60;99.90
35305;DHT22;26433;48.034;-1.764;2022-10-15T05:44:13;17.60;99.90
35305;DHT22;26433;48.034;-1.764;2022-10-15T05:49:18;17.60;99.90
35305;DHT22;26433;48.034;-1.764;2022-10-15T05:54:24;17.60;99.90
35305;DHT22;26433;48.034;-1.764;2022-10-15T05:59:27;17.50;99.90
35305;DHT22;26433;48.034;-1.764;2022-10-15T06:04:32;17.50;99.90
35305;DHT22;26433;48.034;-1.764;2022-10-15T06:09:37;17.50;99.90
35305;DHT22;26433;48.034;-1.764;2022-10-15T06:14:40;17.50;99.90
35305;DHT22;26433;48.034;-1.764;2022-10-15T06:19:45;17.50;99.80
35305;DHT22;26433;48.034;-1.764;2022-10-15T06:24:49;17.40;99.90
35305;DHT22;26433;48.034;-1.764;2022-10-15T06:29:55;17.30;99.90
35305;DHT22;26433;48.034;-1.764;2022-10-15T06:35:00;17.20;99.90
35305;DHT22;26433;48.034;-1.764;2022-10-15T06:40:05;17.20;99.90
35305;DHT22;26433;48.034;-1.764;2022-10-15T06:45:14;17.10;99.90
35305;DHT22;26433;48.034;-1.764;2022-10-15T06:50:24;17.00;99.90
35305;DHT22;26433;48.034;-1.764;2022-10-15T06:55:28;16.90;99.90
35305;DHT22;26433;48.034;-1.764;2022-10-15T07:00:31;16.90;99.90
35305;DHT22;26433;48.034;-1.764;2022-10-15T07:05:41;16.90;99.90
35305;DHT22;26433;48.034;-1.764;2022-10-15T07:10:45;16.90;99.90
35305;DHT22;26433;48.034;-1.764;2022-10-15T07:15:48;16.80;99.90
35305;DHT22;26433;48.034;-1.764;2022-10-15T07:20:57;16.70;99.90
35305;DHT22;26433;48.034;-1.764;2022-10-15T07:26:00;16.70;99.90
35305;DHT22;26433;48.034;-1.764;2022-10-15T07:31:06;16.60;99.90
35305;DHT22;26433;48.034;-1.764;2022-10-15T07:36:13;16.60;99.90
35305;DHT22;26433;48.034;-1.764;2022-10-15T07:41:17;16.60;99.90
35305;DHT22;26433;48.034;-1.764;2022-10-15T07:46:21;16.60;99.90
35305;DHT22;26433;48.034;-1.764;2022-10-15T07:51:29;16.60;99.90
35305;DHT22;26433;48.034;-1.764;2022-10-15T07:56:32;16.60;99.90
35305;DHT22;26433;48.034;-1.764;2022-10-15T08:01:36;16.60;99.90
35305;DHT22;26433;48.034;-1.764;2022-10-15T08:06:41;16.60;99.90
35305;DHT22;26433;48.034;-1.764;2022-10-15T08:11:45;16.60;99.90
35305;DHT22;26433;48.034;-1.764;2022-10-15T08:16:51;16.70;99.90
35305;DHT22;26433;48.034;-1.764;2022-10-15T08:21:56;16.90;99.70
35305;DHT22;26433;48.034;-1.764;2022-10-15T08:27:00;17.00;99.40
35305;DHT22;26433;48.034;-1.764;2022-10-15T08:32:03;17.10;99.40
35305;DHT22;26433;48.034;-1.764;2022-10-15T08:37:08;17.20;99.30
35305;DHT22;26433;48.034;-1.764;2022-10-15T08:42:17;17.40;99.20
35305;DHT22;26433;48.034;-1.764;2022-10-15T08:47:28;17.60;98.80
35305;DHT22;26433;48.034;-1.764;2022-10-15T08:52:41;17.70;98.60
35305;DHT22;26433;48.034;-1.764;2022-10-15T08:57:50;17.90;98.50
35305;DHT22;26433;48.034;-1.764;2022-10-15T09:02:59;18.00;98.10
35305;DHT22;26433;48.034;-1.764;2022-10-15T09:08:15;18.00;98.20
35305;DHT22;26433;48.034;-1.764;2022-10-15T09:13:25;17.90;98.00
35305;DHT22;26433;48.034;-1.764;2022-10-15T09:18:32;17.90;98.10
35305;DHT22;26433;48.034;-1.764;2022-10-15T09:23:37;18.00;98.10
35305;DHT22;26433;48.034;-1.764;2022-10-15T09:28:45;18.00;98.00
35305;DHT22;26433;48.034;-1.764;2022-10-15T09:34:00;18.10;97.80
35305;DHT22;26433;48.034;-1.764;2022-10-15T09:44:40;18.10;97.70
35305;DHT22;26433;48.034;-1.764;2022-10-15T09:49:44;18.20;97.50
35305;DHT22;26433;48.034;-1.764;2022-10-15T09:54:57;18.10;97.50
35305;DHT22;26433;48.034;-1.764;2022-10-15T10:00:06;18.10;97.50
35305;DHT22;26433;48.034;-1.764;2022-10-15T10:05:26;18.10;97.40
35305;DHT22;26433;48.034;-1.764;2022-10-15T10:10:32;18.00;97.40
35305;DHT22;26433;48.034;-1.764;2022-10-15T10:15:40;18.00;97.50
35305;DHT22;26433;48.034;-1.764;2022-10-15T10:20:53;18.00;97.50
35305;DHT22;26433;48.034;-1.764;2022-10-15T10:26:03;17.80;97.50
35305;DHT22;26433;48.034;-1.764;2022-10-15T10:31:08;17.70;97.80
35305;DHT22;26433;48.034;-1.764;2022-10-15T10:36:20;17.50;98.20
35305;DHT22;26433;48.034;-1.764;2022-10-15T10:41:47;17.50;98.50
35305;DHT22;26433;48.034;-1.764;2022-10-15T10:52:22;17.60;98.20
35305;DHT22;26433;48.034;-1.764;2022-10-15T10:57:34;17.70;98.10
35305;DHT22;26433;48.034;-1.764;2022-10-15T11:02:40;17.90;98.60
35305;DHT22;26433;48.034;-1.764;2022-10-15T11:07:50;18.40;97.80
35305;DHT22;26433;48.034;-1.764;2022-10-15T11:13:11;18.80;97.10
35305;DHT22;26433;48.034;-1.764;2022-10-15T11:18:31;19.30;96.60
35305;DHT22;26433;48.034;-1.764;2022-10-15T11:23:48;19.70;95.60
35305;DHT22;26433;48.034;-1.764;2022-10-15T11:29:05;19.80;95.30
35305;DHT22;26433;48.034;-1.764;2022-10-15T11:34:24;19.80;95.30
35305;DHT22;26433;48.034;-1.764;2022-10-15T11:39:47;20.00;95.10
35305;DHT22;26433;48.034;-1.764;2022-10-15T11:45:08;20.00;94.60
35305;DHT22;26433;48.034;-1.764;2022-10-15T11:50:26;19.90;94.90
35305;DHT22;26433;48.034;-1.764;2022-10-15T11:55:36;19.70;94.90
35305;DHT22;26433;48.034;-1.764;2022-10-15T12:00:47;19.60;95.20
35305;DHT22;26433;48.034;-1.764;2022-10-15T12:05:54;19.70;95.30
35305;DHT22;26433;48.034;-1.764;2022-10-15T12:11:10;19.70;95.00
35305;DHT22;26433;48.034;-1.764;2022-10-15T12:16:26;19.70;95.10
35305;DHT22;26433;48.034;-1.764;2022-10-15T12:21:36;19.80;94.90
35305;DHT22;26433;48.034;-1.764;2022-10-15T12:26:40;20.40;94.50
35305;DHT22;26433;48.034;-1.764;2022-10-15T12:31:49;21.10;92.80
35305;DHT22;26433;48.034;-1.764;2022-10-15T12:37:00;21.50;91.60
35305;DHT22;26433;48.034;-1.764;2022-10-15T12:42:17;21.70;90.30
35305;DHT22;26433;48.034;-1.764;2022-10-15T12:53:01;21.60;90.20
35305;DHT22;26433;48.034;-1.764;2022-10-15T12:58:34;21.40;88.90
35305;DHT22;26433;48.034;-1.764;2022-10-15T13:03:40;21.30;88.50
35305;DHT22;26433;48.034;-1.764;2022-10-15T13:08:47;21.30;86.80
35305;DHT22;26433;48.034;-1.764;2022-10-15T13:13:58;20.90;86.80
35305;DHT22;26433;48.034;-1.764;2022-10-15T13:19:03;20.60;88.20
35305;DHT22;26433;48.034;-1.764;2022-10-15T13:24:10;20.50;88.10
35305;DHT22;26433;48.034;-1.764;2022-10-15T13:29:17;20.30;87.80
35305;DHT22;26433;48.034;-1.764;2022-10-15T13:34:26;20.40;88.00
35305;DHT22;26433;48.034;-1.764;2022-10-15T13:39:32;20.80;84.50
35305;DHT22;26433;48.034;-1.764;2022-10-15T13:44:39;20.90;83.00
35305;DHT22;26433;48.034;-1.764;2022-10-15T13:49:43;21.10;83.20
35305;DHT22;26433;48.034;-1.764;2022-10-15T13:54:47;21.40;80.30
35305;DHT22;26433;48.034;-1.764;2022-10-15T13:59:52;21.30;80.00
35305;DHT22;26433;48.034;-1.764;2022-10-15T14:05:14;21.00;80.50
35305;DHT22;26433;48.034;-1.764;2022-10-15T14:10:18;20.90;81.20
35305;DHT22;26433;48.034;-1.764;2022-10-15T14:15:44;20.60;81.00
35305;DHT22;26433;48.034;-1.764;2022-10-15T14:20:49;21.00;79.90
35305;DHT22;26433;48.034;-1.764;2022-10-15T14:25:57;21.00;79.80
35305;DHT22;26433;48.034;-1.764;2022-10-15T14:31:03;21.20;78.90
35305;DHT22;26433;48.034;-1.764;2022-10-15T14:36:11;21.20;78.00
35305;DHT22;26433;48.034;-1.764;2022-10-15T14:41:36;21.10;77.80
35305;DHT22;26433;48.034;-1.764;2022-10-15T14:46:43;20.90;77.60
35305;DHT22;26433;48.034;-1.764;2022-10-15T14:51:55;20.70;78.00
35305;DHT22;26433;48.034;-1.764;2022-10-15T14:57:00;20.60;78.20
35305;DHT22;26433;48.034;-1.764;2022-10-15T15:02:09;20.40;77.80
35305;DHT22;26433;48.034;-1.764;2022-10-15T15:07:18;20.30;77.70
35305;DHT22;26433;48.034;-1.764;2022-10-15T15:12:23;20.20;77.70
35305;DHT22;26433;48.034;-1.764;2022-10-15T15:17:30;20.20;77.30
35305;DHT22;26433;48.034;-1.764;2022-10-15T15:22:35;20.20;76.90
35305;DHT22;26433;48.034;-1.764;2022-10-15T15:27:39;20.10;76.90
35305;DHT22;26433;48.034;-1.764;2022-10-15T15:32:44;20.00;76.90
35305;DHT22;26433;48.034;-1.764;2022-10-15T15:37:49;20.00;76.80
35305;DHT22;26433;48.034;-1.764;2022-10-15T15:42:52;19.90;76.70
35305;DHT22;26433;48.034;-1.764;2022-10-15T15:47:59;19.80;76.90
35305;DHT22;26433;48.034;-1.764;2022-10-15T15:53:05;19.70;77.50
35305;DHT22;26433;48.034;-1.764;2022-10-15T15:58:08;19.70;77.80
35305;DHT22;26433;48.034;-1.764;2022-10-15T16:03:14;19.60;77.90
35305;DHT22;26433;48.034;-1.764;2022-10-15T16:08:17;19.50;78.20
35305;DHT22;26433;48.034;-1.764;2022-10-15T16:13:21;19.50;78.20
35305;DHT22;26433;48.034;-1.764;2022-10-15T16:18:26;19.30;78.60
35305;DHT22;26433;48.034;-1.764;2022-10-15T16:23:30;19.20;78.90
35305;DHT22;26433;48.034;-1.764;2022-10-15T16:28:33;19.20;79.00
35305;DHT22;26433;48.034;-1.764;2022-10-15T16:33:38;19.10;79.00
35305;DHT22;26433;48.034;-1.764;2022-10-15T16:38:44;19.00;79.10
35305;DHT22;26433;48.034;-1.764;2022-10-15T16:43:48;18.90;79.00
35305;DHT22;26433;48.034;-1.764;2022-10-15T16:48:54;18.80;79.20
35305;DHT22;26433;48.034;-1.764;2022-10-15T16:53:58;18.80;79.20
35305;DHT22;26433;48.034;-1.764;2022-10-15T16:59:01;18.80;79.40
35305;DHT22;26433;48.034;-1.764;2022-10-15T17:04:06;18.70;79.50
35305;DHT22;26433;48.034;-1.764;2022-10-15T17:09:10;18.60;79.70
35305;DHT22;26433;48.034;-1.764;2022-10-15T17:14:15;18.50;80.20
35305;DHT22;26433;48.034;-1.764;2022-10-15T17:19:21;18.40;80.40
35305;DHT22;26433;48.034;-1.764;2022-10-15T17:24:31;18.30;80.60
35305;DHT22;26433;48.034;-1.764;2022-10-15T17:29:35;18.40;80.70
35305;DHT22;26433;48.034;-1.764;2022-10-15T17:34:40;18.30;80.90
35305;DHT22;26433;48.034;-1.764;2022-10-15T17:39:44;18.30;80.90
35305;DHT22;26433;48.034;-1.764;2022-10-15T17:44:49;18.30;81.00
35305;DHT22;26433;48.034;-1.764;2022-10-15T17:49:54;18.30;81.00
35305;DHT22;26433;48.034;-1.764;2022-10-15T17:54:57;18.30;81.40
35305;DHT22;26433;48.034;-1.764;2022-10-15T18:00:01;18.20;82.00
35305;DHT22;26433;48.034;-1.764;2022-10-15T18:05:14;18.10;82.70
35305;DHT22;26433;48.034;-1.764;2022-10-15T18:10:18;18.00;83.20
35305;DHT22;26433;48.034;-1.764;2022-10-15T18:15:22;18.00;83.70
35305;DHT22;26433;48.034;-1.764;2022-10-15T18:20:27;18.00;84.00
35305;DHT22;26433;48.034;-1.764;2022-10-15T18:25:30;18.00;84.20
35305;DHT22;26433;48.034;-1.764;2022-10-15T18:30:35;18.00;84.60
35305;DHT22;26433;48.034;-1.764;2022-10-15T18:35:40;18.00;84.90
35305;DHT22;26433;48.034;-1.764;2022-10-15T18:40:44;17.90;85.20
35305;DHT22;26433;48.034;-1.764;2022-10-15T18:45:48;17.90;85.70
35305;DHT22;26433;48.034;-1.764;2022-10-15T18:50:53;17.90;86.00
35305;DHT22;26433;48.034;-1.764;2022-10-15T18:55:56;17.90;86.10
35305;DHT22;26433;48.034;-1.764;2022-10-15T19:01:08;17.90;86.40
35305;DHT22;26433;48.034;-1.764;2022-10-15T19:06:13;17.90;86.80
35305;DHT22;26433;48.034;-1.764;2022-10-15T19:11:18;17.90;86.90
35305;DHT22;26433;48.034;-1.764;2022-10-15T19:16:21;18.00;86.80
35305;DHT22;26433;48.034;-1.764;2022-10-15T19:21:27;18.00;86.90
35305;DHT22;26433;48.034;-1.764;2022-10-15T19:26:32;18.00;87.10
35305;DHT22;26433;48.034;-1.764;2022-10-15T19:31:38;18.00;87.50
35305;DHT22;26433;48.034;-1.764;2022-10-15T19:36:44;18.00;87.80
35305;DHT22;26433;48.034;-1.764;2022-10-15T19:41:49;17.90;88.20
35305;DHT22;26433;48.034;-1.764;2022-10-15T19:46:55;17.80;88.70
35305;DHT22;26433;48.034;-1.764;2022-10-15T19:52:00;17.70;88.90
35305;DHT22;26433;48.034;-1.764;2022-10-15T19:57:03;17.70;89.20
35305;DHT22;26433;48.034;-1.764;2022-10-15T20:02:09;17.70;89.40
35305;DHT22;26433;48.034;-1.764;2022-10-15T20:07:15;17.60;89.60
35305;DHT22;26433;48.034;-1.764;2022-10-15T20:12:18;17.60;89.80
35305;DHT22;26433;48.034;-1.764;2022-10-15T20:17:22;17.50;90.00
35305;DHT22;26433;48.034;-1.764;2022-10-15T20:22:27;17.40;90.00
35305;DHT22;26433;48.034;-1.764;2022-10-15T20:27:32;17.30;90.30
35305;DHT22;26433;48.034;-1.764;2022-10-15T20:32:35;17.30;90.50
35305;DHT22;26433;48.034;-1.764;2022-10-15T20:37:41;17.20;90.40
35305;DHT22;26433;48.034;-1.764;2022-10-15T20:42:45;17.20;90.60
35305;DHT22;26433;48.034;-1.764;2022-10-15T20:47:50;17.10;90.70
35305;DHT22;26433;48.034;-1.764;2022-10-15T20:52:56;17.00;90.90
35305;DHT22;26433;48.034;-1.764;2022-10-15T20:58:00;16.90;91.00
35305;DHT22;26433;48.034;-1.764;2022-10-15T21:03:04;16.80;91.30
35305;DHT22;26433;48.034;-1.764;2022-10-15T21:08:09;16.70;91.50
35305;DHT22;26433;48.034;-1.764;2022-10-15T21:13:13;16.60;91.70
35305;DHT22;26433;48.034;-1.764;2022-10-15T21:18:16;16.60;91.80
35305;DHT22;26433;48.034;-1.764;2022-10-15T21:23:21;16.50;91.80
35305;DHT22;26433;48.034;-1.764;2022-10-15T21:28:25;16.40;92.10
35305;DHT22;26433;48.034;-1.764;2022-10-15T21:33:29;16.40;92.20
35305;DHT22;26433;48.034;-1.764;2022-10-15T21:38:34;16.40;92.30
35305;DHT22;26433;48.034;-1.764;2022-10-15T21:43:37;16.40;92.20
35305;DHT22;26433;48.034;-1.764;2022-10-15T21:48:42;16.30;92.30
35305;DHT22;26433;48.034;-1.764;2022-10-15T21:53:47;16.30;92.50
35305;DHT22;26433;48.034;-1.764;2022-10-15T21:58:51;16.30;92.60
35305;DHT22;26433;48.034;-1.764;2022-10-15T22:03:58;16.20;92.80
35305;DHT22;26433;48.034;-1.764;2022-10-15T22:09:03;16.20;92.90
35305;DHT22;26433;48.034;-1.764;2022-10-15T22:14:09;16.10;93.10
35305;DHT22;26433;48.034;-1.764;2022-10-15T22:19:14;16.20;93.20
35305;DHT22;26433;48.034;-1.764;2022-10-15T22:24:20;16.20;93.30
35305;DHT22;26433;48.034;-1.764;2022-10-15T22:29:25;16.20;93.20
